ประเทศบรูไนดารุสซาลาม, ประเทศบรูไนดารุสซาลาม

06:51 AM BNT วัน กุมภาพันธ์ 27, 2015 (GMT +0800)
Brunei International | Change Station
CLOSE
Current Station
Airport
Location: Brunei,
Elevation: 72 ft
Nearby Weather Stations

Elev 72 ft 4.94 °N, 114.93 °E | Updated 21 minutes ago

Mostly Cloudy
มีเมฆคลุมเป็นส่วนใหญ่
77 ฟาเรนไฮน์
Feels Like 77 ฟาเรนไฮน์
N
1
ลม ความผันแปร ลม from ทางทิศใต้และทิศตะวันออกเฉียงใต้

วันนี้
High -- | Low -- ฟาเรนไฮน์
--% Chance of Precip.
Yesterday
High -- | Low -- ฟาเรนไฮน์
Precip. -- นิ้ว
6:32 AM 6:33 PM
ข้างขึ้น, 63% visible
ความดัน 29.83 นิ้ว
ทัศนวิสัย 6.2 ไมล์
เมฆ Few 400 ft
มีเมฆคลุมเป็นส่วนใหญ่ 27000 ft
อุณหภูมิที่อากาศอาจจับตัวเป็นหยาดน้ำค้าง 77 ฟาเรนไฮน์
ความชื้น 100%
Rainfall 0.00 นิ้ว
Snow Depth Not available.
UV 0 out of 12
Pollen Not available.
Air Quality Not available.
Flu Activity Not available.
METAR WBSB 262230Z 16001KT 9999 FEW004 BKN270 25/25 Q1010 NOSIG

More Conditions Fewer Conditions

ความดัน 29.83 นิ้ว
ทัศนวิสัย 6.2 ไมล์
เมฆ Few 400 ft
มีเมฆคลุมเป็นส่วนใหญ่ 27000 ft
อุณหภูมิที่อากาศอาจจับตัวเป็นหยาดน้ำค้าง 77 ฟาเรนไฮน์
ความชื้น 100%
Rainfall 0.00 นิ้ว
Snow Depth Not available.
UV 0 out of 12
Pollen Not available.
Air Quality Not available.
Flu Activity Not available.
METAR WBSB 262230Z 16001KT 9999 FEW004 BKN270 25/25 Q1010 NOSIG

More Conditions Fewer Conditions

10-Day Weather Forecast

Almanac

ดาราศาสตร์

Feb. 27, 2015 Rise Set
Actual Time
Civil Twilight
Nautical Twilight
Astronomical Twilight
Moon
Length Of Visible Light
ความยาวของวัน
Tomorrow will be .
, % of the Moon is Illuminated

Today's Extremes

Country Highs Country Lows

Community

WunderPhotos

Upload Photos

1,800,546 photos uploaded!

WunderBlogs® & News

Nearby

Air Quality

  Air Quality AQ Index Pollutant
Not available.

Snow Depth

Station Depth Elevation

Earthquake Activity

City Distance Mag. Time & Date
Minimum magnitude displayed is 2.5.

Coastal Water Temperatures

สถานที่ อุณหภูมิ

Nearby Weather Stations